createdAt,value
2018-06-15T00:02:20.780Z,13.90
2018-06-15T00:04:56.468Z,13.90
2018-06-15T00:07:31.955Z,13.90
2018-06-15T00:10:07.342Z,13.90
2018-06-15T00:12:42.988Z,13.90
2018-06-15T00:15:18.408Z,13.90
2018-06-15T00:17:54.068Z,13.80
2018-06-15T00:20:29.563Z,13.80
2018-06-15T00:23:05.265Z,13.70
2018-06-15T00:25:40.753Z,13.60
2018-06-15T00:28:16.301Z,13.60
2018-06-15T00:30:51.876Z,13.60
2018-06-15T00:33:27.520Z,13.60
2018-06-15T00:36:03.042Z,13.50
2018-06-15T00:38:38.713Z,13.40
2018-06-15T00:41:14.375Z,13.30
2018-06-15T00:43:49.980Z,13.30
2018-06-15T00:46:25.445Z,13.20
2018-06-15T00:49:01.034Z,13.10
2018-06-15T00:51:37.003Z,13.10
2018-06-15T00:54:12.639Z,13.10
2018-06-15T00:56:59.453Z,13.10
2018-06-15T00:59:34.985Z,13.10
2018-06-15T01:02:10.651Z,13.10
2018-06-15T01:04:46.237Z,13.00
2018-06-15T01:07:21.669Z,13.00
2018-06-15T01:09:57.304Z,13.00
2018-06-15T01:12:32.912Z,13.00
2018-06-15T01:15:08.671Z,13.00
2018-06-15T01:17:44.189Z,12.90
2018-06-15T01:20:19.747Z,12.90
2018-06-15T01:22:55.376Z,13.00
2018-06-15T01:25:30.843Z,12.90
2018-06-15T01:28:06.268Z,12.90
2018-06-15T01:30:41.937Z,12.90
2018-06-15T01:33:17.420Z,12.80
2018-06-15T01:35:53.086Z,12.70
2018-06-15T01:38:28.728Z,12.80
2018-06-15T01:41:04.351Z,12.70
2018-06-15T01:43:40.000Z,12.70
2018-06-15T01:46:15.529Z,12.70
2018-06-15T01:48:51.128Z,12.80
2018-06-15T01:51:26.600Z,12.70
2018-06-15T01:54:02.106Z,12.70
2018-06-15T01:56:37.711Z,12.70
2018-06-15T01:59:13.203Z,12.70
2018-06-15T02:01:48.653Z,12.60
2018-06-15T02:04:24.186Z,12.60
2018-06-15T02:06:59.622Z,12.60
2018-06-15T02:09:35.193Z,12.50
2018-06-15T02:12:10.824Z,12.60
2018-06-15T02:14:46.229Z,12.60
2018-06-15T02:17:22.040Z,12.50
2018-06-15T02:19:57.584Z,12.40
2018-06-15T02:22:33.155Z,12.40
2018-06-15T02:25:13.550Z,12.30
2018-06-15T02:27:48.997Z,12.30
2018-06-15T02:30:24.601Z,12.30
2018-06-15T02:33:00.301Z,12.20
2018-06-15T02:35:35.859Z,12.10
2018-06-15T02:38:11.530Z,12.00
2018-06-15T02:40:47.052Z,12.00
2018-06-15T02:43:22.648Z,11.90
2018-06-15T02:45:58.279Z,11.90
2018-06-15T02:48:33.916Z,11.80
2018-06-15T02:51:09.324Z,11.80
2018-06-15T02:53:44.796Z,11.80
2018-06-15T02:56:20.289Z,11.70
2018-06-15T02:58:55.990Z,11.60
2018-06-15T03:01:31.401Z,11.60
2018-06-15T03:04:06.778Z,11.60
2018-06-15T03:06:42.215Z,11.60
2018-06-15T03:09:17.790Z,11.60
2018-06-15T03:14:28.792Z,11.50
2018-06-15T03:17:04.346Z,11.50
2018-06-15T03:19:39.949Z,11.50
2018-06-15T03:22:15.551Z,11.40
2018-06-15T03:24:51.207Z,11.50
2018-06-15T03:27:26.769Z,11.40
2018-06-15T03:30:02.224Z,11.40
2018-06-15T03:32:37.857Z,11.40
2018-06-15T03:35:13.426Z,11.40
2018-06-15T03:37:48.947Z,11.40
2018-06-15T03:40:24.392Z,11.40
2018-06-15T03:42:59.861Z,11.50
2018-06-15T03:45:35.328Z,11.50
2018-06-15T03:48:10.836Z,11.50
2018-06-15T03:50:46.466Z,11.70
2018-06-15T03:53:22.180Z,11.70
2018-06-15T03:55:57.644Z,11.70
2018-06-15T03:58:33.075Z,11.80
2018-06-15T04:01:08.538Z,11.80
2018-06-15T04:03:44.104Z,11.90
2018-06-15T04:06:19.530Z,11.90
2018-06-15T04:08:55.069Z,11.90
2018-06-15T04:11:30.579Z,12.00
2018-06-15T04:14:06.095Z,12.10
2018-06-15T04:16:41.632Z,12.10
2018-06-15T04:19:17.196Z,12.20
2018-06-15T04:21:52.699Z,12.20
2018-06-15T04:24:28.167Z,12.20
2018-06-15T04:27:03.639Z,12.20
2018-06-15T04:29:39.172Z,12.30
2018-06-15T04:32:14.708Z,12.40
2018-06-15T04:34:50.269Z,12.40
2018-06-15T04:37:25.972Z,12.40
2018-06-15T04:40:01.562Z,12.60
2018-06-15T04:42:37.221Z,12.60
2018-06-15T04:45:12.792Z,12.70
2018-06-15T04:47:48.404Z,12.90
2018-06-15T04:50:23.828Z,12.90
2018-06-15T04:52:59.436Z,12.90
2018-06-15T04:55:34.901Z,13.00
2018-06-15T04:58:10.445Z,13.00
2018-06-15T05:00:45.931Z,13.00
2018-06-15T05:03:21.559Z,13.00
2018-06-15T05:05:57.126Z,13.10
2018-06-15T05:08:32.798Z,13.30
2018-06-15T05:11:08.360Z,13.80
2018-06-15T05:13:44.428Z,14.50
2018-06-15T05:16:19.904Z,14.60
2018-06-15T05:18:55.543Z,15.10
2018-06-15T05:21:31.320Z,15.40
2018-06-15T05:24:06.767Z,15.50
2018-06-15T05:26:42.183Z,15.70
2018-06-15T05:29:17.772Z,16.10
2018-06-15T05:31:53.470Z,16.20
2018-06-15T05:34:29.024Z,16.40
2018-06-15T05:37:04.534Z,16.40
2018-06-15T05:39:40.320Z,16.70
2018-06-15T05:42:15.928Z,16.70
2018-06-15T05:44:51.493Z,17.10
2018-06-15T05:47:26.994Z,17.20
2018-06-15T05:50:02.577Z,17.20
2018-06-15T05:52:38.049Z,17.30
2018-06-15T05:55:13.542Z,17.40
2018-06-15T05:57:49.172Z,17.50
2018-06-15T06:00:24.719Z,17.40
2018-06-15T06:03:00.260Z,17.60
2018-06-15T06:05:35.926Z,17.90
2018-06-15T06:08:11.371Z,17.60
2018-06-15T06:10:47.037Z,17.80
2018-06-15T06:13:22.655Z,18.00
2018-06-15T06:15:58.324Z,18.30
2018-06-15T06:18:33.924Z,18.40
2018-06-15T06:21:09.615Z,18.30
2018-06-15T06:23:45.186Z,18.30
2018-06-15T06:26:20.644Z,18.20
2018-06-15T06:28:56.210Z,18.20
2018-06-15T06:31:31.700Z,18.20
2018-06-15T06:34:08.055Z,18.50
2018-06-15T06:36:43.648Z,18.60
2018-06-15T06:39:19.188Z,18.80
2018-06-15T06:41:54.784Z,18.30
2018-06-15T06:44:30.336Z,18.30
2018-06-15T06:47:06.048Z,18.40
2018-06-15T06:49:41.533Z,18.30
2018-06-15T06:52:17.522Z,18.60
2018-06-15T06:54:53.071Z,18.40
2018-06-15T06:57:28.700Z,18.60
2018-06-15T07:00:04.719Z,18.80
2018-06-15T07:02:40.385Z,18.80
2018-06-15T07:05:16.275Z,19.10
2018-06-15T07:07:51.763Z,19.00
2018-06-15T07:10:27.338Z,18.70
2018-06-15T07:13:02.987Z,18.80
2018-06-15T07:15:38.512Z,19.10
2018-06-15T07:18:13.927Z,19.20
2018-06-15T07:20:49.507Z,19.50
2018-06-15T07:23:24.952Z,19.20
2018-06-15T07:26:00.363Z,19.20
2018-06-15T07:28:35.901Z,19.10
2018-06-15T07:31:11.491Z,19.10
2018-06-15T07:33:47.011Z,19.30
2018-06-15T07:36:22.608Z,19.60
2018-06-15T07:38:58.155Z,19.60
2018-06-15T07:44:08.916Z,20.20
2018-06-15T07:46:44.496Z,20.10
2018-06-15T07:49:20.004Z,21.00
2018-06-15T07:51:55.562Z,21.20
2018-06-15T07:54:31.235Z,21.40
2018-06-15T07:57:06.731Z,21.90
2018-06-15T07:59:42.476Z,22.70
2018-06-15T08:02:17.893Z,22.40
2018-06-15T08:04:53.325Z,21.40
2018-06-15T08:07:28.912Z,22.30
2018-06-15T08:10:04.367Z,22.80
2018-06-15T08:12:39.828Z,23.50
2018-06-15T08:15:15.470Z,23.40
2018-06-15T08:17:51.136Z,23.30
2018-06-15T08:20:26.650Z,23.80
2018-06-15T08:23:02.060Z,23.40
2018-06-15T08:25:37.512Z,23.80
2018-06-15T08:28:13.060Z,24.10
2018-06-15T08:30:48.661Z,23.50
2018-06-15T08:33:24.172Z,23.50
2018-06-15T08:35:59.823Z,23.50
2018-06-15T08:38:35.326Z,23.00
2018-06-15T08:41:10.863Z,23.00
2018-06-15T08:43:46.321Z,23.40
2018-06-15T08:46:22.135Z,23.20
2018-06-15T08:48:57.701Z,24.00
2018-06-15T08:51:33.215Z,23.90
2018-06-15T08:54:08.747Z,24.20
2018-06-15T08:56:44.324Z,23.20
2018-06-15T08:59:19.788Z,23.20
2018-06-15T09:01:55.448Z,23.70
2018-06-15T09:04:31.079Z,23.70
2018-06-15T09:07:06.590Z,23.80
2018-06-15T09:09:42.225Z,24.20
2018-06-15T09:12:18.218Z,24.40
2018-06-15T09:14:53.839Z,23.60
2018-06-15T09:17:29.351Z,23.80
2018-06-15T09:20:04.848Z,24.10
2018-06-15T09:22:40.503Z,23.80
2018-06-15T09:25:16.211Z,24.00
2018-06-15T09:27:51.891Z,23.60
2018-06-15T09:30:27.416Z,24.10
2018-06-15T09:33:03.080Z,24.10
2018-06-15T09:35:38.538Z,24.70
2018-06-15T09:38:14.169Z,24.50
2018-06-15T09:40:49.776Z,24.60
2018-06-15T09:43:25.364Z,24.00
2018-06-15T09:46:00.872Z,24.10
2018-06-15T09:48:40.543Z,24.50
2018-06-15T09:51:16.273Z,24.70
2018-06-15T09:53:51.828Z,24.40
2018-06-15T09:56:27.458Z,25.20
2018-06-15T09:59:03.008Z,24.80
2018-06-15T10:01:38.600Z,24.40
2018-06-15T10:04:14.176Z,24.70
2018-06-15T10:06:49.648Z,24.70
2018-06-15T10:09:25.277Z,23.70
2018-06-15T10:12:00.808Z,24.50
2018-06-15T10:14:36.281Z,24.20
2018-06-15T10:17:11.695Z,24.50
2018-06-15T10:19:47.367Z,24.80
2018-06-15T10:22:22.779Z,24.50
2018-06-15T10:24:58.355Z,23.90
2018-06-15T10:27:33.899Z,23.80
2018-06-15T10:30:09.405Z,23.40
2018-06-15T10:32:44.892Z,23.60
2018-06-15T10:35:20.501Z,23.20
2018-06-15T10:37:56.117Z,22.70
2018-06-15T10:40:31.733Z,22.40
2018-06-15T10:43:07.142Z,22.10
2018-06-15T10:45:42.776Z,21.90
2018-06-15T10:48:18.470Z,20.90
2018-06-15T10:50:53.945Z,20.50
2018-06-15T10:53:29.406Z,20.00
2018-06-15T10:56:04.965Z,20.10
2018-06-15T10:58:40.493Z,21.00
2018-06-15T11:01:16.111Z,22.00
2018-06-15T11:03:51.740Z,21.30
2018-06-15T11:06:27.350Z,21.10
2018-06-15T11:09:02.935Z,21.70
2018-06-15T11:11:38.684Z,22.20
2018-06-15T11:14:14.264Z,22.80
2018-06-15T11:16:49.787Z,21.90
2018-06-15T11:19:25.219Z,21.80
2018-06-15T11:22:00.802Z,22.30
2018-06-15T11:24:36.462Z,21.60
2018-06-15T11:27:12.028Z,21.20
2018-06-15T11:29:47.596Z,21.60
2018-06-15T11:32:23.131Z,21.40
2018-06-15T11:34:58.603Z,21.60
2018-06-15T11:37:34.120Z,22.00
2018-06-15T11:40:09.754Z,22.80
2018-06-15T11:42:45.223Z,23.60
2018-06-15T11:45:20.706Z,23.80
2018-06-15T11:47:56.447Z,23.00
2018-06-15T11:50:31.801Z,22.20
2018-06-15T11:53:09.451Z,21.90
2018-06-15T11:55:44.981Z,21.60
2018-06-15T11:58:20.783Z,22.50
2018-06-15T12:00:56.336Z,22.20
2018-06-15T12:03:31.943Z,22.10
2018-06-15T12:06:07.371Z,21.80
2018-06-15T12:08:42.857Z,21.80
2018-06-15T12:11:18.468Z,21.50
2018-06-15T12:13:54.124Z,21.50
2018-06-15T12:16:29.608Z,21.70
2018-06-15T12:19:05.251Z,21.60
2018-06-15T12:21:40.895Z,21.40
2018-06-15T12:24:16.502Z,21.30
2018-06-15T12:26:52.170Z,22.10
2018-06-15T12:32:02.984Z,22.00
2018-06-15T12:34:38.539Z,22.40
2018-06-15T12:37:14.148Z,22.50
2018-06-15T12:39:50.164Z,22.90
2018-06-15T12:42:25.768Z,23.10
2018-06-15T12:45:01.357Z,23.50
2018-06-15T12:47:36.947Z,24.40
2018-06-15T12:50:12.365Z,23.90
2018-06-15T12:52:47.753Z,23.20
2018-06-15T12:55:23.463Z,22.90
2018-06-15T12:57:58.953Z,23.10
2018-06-15T13:00:34.464Z,23.80
2018-06-15T13:03:09.945Z,23.90
2018-06-15T13:05:45.535Z,24.10
2018-06-15T13:08:21.026Z,23.60
2018-06-15T13:10:56.745Z,23.30
2018-06-15T13:13:32.252Z,22.90
2018-06-15T13:16:07.880Z,22.60
2018-06-15T13:18:43.543Z,22.20
2018-06-15T13:21:19.007Z,22.10
2018-06-15T13:23:54.674Z,21.90
2018-06-15T13:26:30.243Z,21.60
2018-06-15T13:29:06.149Z,21.50
2018-06-15T13:31:41.827Z,21.70
2018-06-15T13:34:17.327Z,21.80
2018-06-15T13:36:53.016Z,21.90
2018-06-15T13:39:28.529Z,21.60
2018-06-15T13:42:04.224Z,21.60
2018-06-15T13:44:39.697Z,21.90
2018-06-15T13:47:15.290Z,22.00
2018-06-15T13:49:50.911Z,22.00
2018-06-15T13:52:26.535Z,21.90
2018-06-15T13:55:02.195Z,21.90
2018-06-15T13:57:37.827Z,21.80
2018-06-15T14:00:13.506Z,21.60
2018-06-15T14:02:48.928Z,21.50
2018-06-15T14:05:24.316Z,21.50
2018-06-15T14:07:59.866Z,21.40
2018-06-15T14:10:35.303Z,21.40
2018-06-15T14:13:10.775Z,21.40
2018-06-15T14:15:46.351Z,21.30
2018-06-15T14:18:22.160Z,21.20
2018-06-15T14:20:57.597Z,21.40
2018-06-15T14:23:33.016Z,21.50
2018-06-15T14:26:08.513Z,21.40
2018-06-15T14:28:44.035Z,21.40
2018-06-15T14:31:19.600Z,21.60
2018-06-15T14:33:55.248Z,21.60
2018-06-15T14:36:31.285Z,21.30
2018-06-15T14:39:08.946Z,21.40
2018-06-15T14:41:44.491Z,21.50
2018-06-15T14:44:20.330Z,21.50
2018-06-15T14:46:56.164Z,21.30
2018-06-15T14:49:32.239Z,21.30
2018-06-15T14:52:07.813Z,21.30
2018-06-15T14:54:43.542Z,21.30
2018-06-15T14:57:19.376Z,21.30
2018-06-15T15:02:29.863Z,21.40
2018-06-15T15:05:05.664Z,21.30
2018-06-15T15:07:41.073Z,21.00
2018-06-15T15:10:16.743Z,21.20
2018-06-15T15:12:52.323Z,21.30
2018-06-15T15:15:27.872Z,21.20
2018-06-15T15:18:03.905Z,21.40
2018-06-15T15:20:39.480Z,21.40
2018-06-15T15:23:20.185Z,21.10
2018-06-15T15:25:55.843Z,20.90
2018-06-15T15:28:31.481Z,20.70
2018-06-15T15:31:07.255Z,20.60
2018-06-15T15:33:43.535Z,20.60
2018-06-15T15:36:19.272Z,20.70
2018-06-15T15:38:54.635Z,20.60
2018-06-15T15:41:30.401Z,20.90
2018-06-15T15:44:05.870Z,21.00
2018-06-15T15:46:41.451Z,21.00
2018-06-15T15:49:16.960Z,21.00
2018-06-15T15:51:52.426Z,20.70
2018-06-15T15:54:27.931Z,20.70
2018-06-15T15:57:03.649Z,20.70
2018-06-15T15:59:39.187Z,20.90
2018-06-15T16:02:14.802Z,20.90
2018-06-15T16:04:50.330Z,21.10
2018-06-15T16:07:27.601Z,21.20
2018-06-15T16:10:04.155Z,21.30
2018-06-15T16:12:40.624Z,21.40
2018-06-15T16:15:16.141Z,21.20
2018-06-15T16:17:51.913Z,21.30
2018-06-15T16:20:27.527Z,21.20
2018-06-15T16:23:03.272Z,21.20
2018-06-15T16:25:38.860Z,21.10
2018-06-15T16:28:14.568Z,21.10
2018-06-15T16:30:50.484Z,21.10
2018-06-15T16:33:26.088Z,21.20
2018-06-15T16:36:01.655Z,21.20
2018-06-15T16:38:37.217Z,20.90
2018-06-15T16:41:12.667Z,20.90
2018-06-15T16:43:48.168Z,20.90
2018-06-15T16:46:23.802Z,20.90
2018-06-15T16:48:59.628Z,21.10
2018-06-15T16:51:35.041Z,21.10
2018-06-15T16:54:10.523Z,21.10
2018-06-15T16:56:46.040Z,21.10
2018-06-15T16:59:21.608Z,21.10
2018-06-15T17:01:57.317Z,21.20
2018-06-15T17:04:32.760Z,21.00
2018-06-15T17:07:08.376Z,20.70
2018-06-15T17:09:43.859Z,20.70
2018-06-15T17:12:19.326Z,20.80
2018-06-15T17:14:55.008Z,21.60
2018-06-15T17:17:30.616Z,20.90
2018-06-15T17:20:06.451Z,21.00
2018-06-15T17:22:41.940Z,20.90
2018-06-15T17:25:17.467Z,20.80
2018-06-15T17:27:53.050Z,20.60
2018-06-15T17:30:28.516Z,20.50
2018-06-15T17:33:04.309Z,20.50
2018-06-15T17:35:39.908Z,20.40
2018-06-15T17:38:15.509Z,20.40
2018-06-15T17:40:51.063Z,20.30
2018-06-15T17:43:26.524Z,20.20
2018-06-15T17:46:02.126Z,20.10
2018-06-15T17:48:37.588Z,20.10
2018-06-15T17:51:13.261Z,20.10
2018-06-15T17:53:48.775Z,20.00
2018-06-15T17:56:24.357Z,19.90
2018-06-15T17:58:59.994Z,19.80
2018-06-15T18:01:35.579Z,19.70
2018-06-15T18:04:11.040Z,19.70
2018-06-15T18:06:46.835Z,19.70
2018-06-15T18:09:22.463Z,19.50
2018-06-15T18:11:58.091Z,19.50
2018-06-15T18:14:33.540Z,19.50
2018-06-15T18:17:09.171Z,19.40
2018-06-15T18:19:44.625Z,19.40
2018-06-15T18:22:20.316Z,19.30
2018-06-15T18:24:55.951Z,19.10
2018-06-15T18:27:31.432Z,19.10
2018-06-15T18:30:06.944Z,18.90
2018-06-15T18:32:42.607Z,18.80
2018-06-15T18:35:18.341Z,18.70
2018-06-15T18:37:54.021Z,18.60
2018-06-15T18:40:29.739Z,18.50
2018-06-15T18:43:05.539Z,18.40
2018-06-15T18:45:41.166Z,18.20
2018-06-15T18:48:16.739Z,18.20
2018-06-15T18:50:52.181Z,18.10
2018-06-15T18:53:27.831Z,18.00
2018-06-15T18:56:03.288Z,17.90
2018-06-15T18:58:39.022Z,17.70
2018-06-15T19:01:14.649Z,17.60
2018-06-15T19:03:50.257Z,17.50
2018-06-15T19:06:26.069Z,17.40
2018-06-15T19:09:01.562Z,17.30
2018-06-15T19:11:37.155Z,17.20
2018-06-15T19:14:12.809Z,17.10
2018-06-15T19:16:48.371Z,17.10
2018-06-15T19:19:23.876Z,17.00
2018-06-15T19:21:59.352Z,16.90
2018-06-15T19:24:35.031Z,16.90
2018-06-15T19:27:10.708Z,16.80
2018-06-15T19:29:46.432Z,16.70
2018-06-15T19:32:21.986Z,16.60
2018-06-15T19:34:57.465Z,16.50
2018-06-15T19:37:32.956Z,16.40
2018-06-15T19:40:08.401Z,16.30
2018-06-15T19:42:43.784Z,16.20
2018-06-15T19:45:19.275Z,16.00
2018-06-15T19:47:54.749Z,16.00
2018-06-15T19:50:30.308Z,16.00
2018-06-15T19:53:05.964Z,15.90
2018-06-15T19:55:41.859Z,15.90
2018-06-15T19:58:17.417Z,15.80
2018-06-15T20:00:53.405Z,15.70
2018-06-15T20:03:28.805Z,15.60
2018-06-15T20:06:04.390Z,15.60
2018-06-15T20:08:40.037Z,15.50
2018-06-15T20:11:15.567Z,15.40
2018-06-15T20:13:51.340Z,15.20
2018-06-15T20:16:27.009Z,15.20
2018-06-15T20:19:02.852Z,15.20
2018-06-15T20:21:38.352Z,15.10
2018-06-15T20:24:14.043Z,15.10
2018-06-15T20:26:49.638Z,15.10
2018-06-15T20:29:25.283Z,15.10
2018-06-15T20:32:01.272Z,15.10
2018-06-15T20:34:36.979Z,15.10
2018-06-15T20:37:12.482Z,15.00
2018-06-15T20:39:48.149Z,15.00
2018-06-15T20:42:23.657Z,14.80
2018-06-15T20:44:59.230Z,14.70
2018-06-15T20:47:34.874Z,14.60
2018-06-15T20:50:10.333Z,14.50
2018-06-15T20:52:45.823Z,14.40
2018-06-15T20:55:21.331Z,14.30
2018-06-15T20:57:56.959Z,14.20
2018-06-15T21:00:32.543Z,14.20
2018-06-15T21:03:08.167Z,14.20
2018-06-15T21:05:43.879Z,14.10
2018-06-15T21:08:19.483Z,14.00
2018-06-15T21:10:55.057Z,14.00
2018-06-15T21:13:30.576Z,13.90
2018-06-15T21:16:06.002Z,13.90
2018-06-15T21:18:41.700Z,13.80
2018-06-15T21:21:17.190Z,13.90
2018-06-15T21:23:52.806Z,13.90
2018-06-15T21:26:28.445Z,13.90
2018-06-15T21:29:04.024Z,13.90
2018-06-15T21:31:39.576Z,13.80
2018-06-15T21:34:15.100Z,13.60
2018-06-15T21:36:50.899Z,13.60
2018-06-15T21:39:26.274Z,13.50
2018-06-15T21:42:02.029Z,13.40
2018-06-15T21:44:37.564Z,13.40
2018-06-15T21:47:13.152Z,13.30
2018-06-15T21:49:48.679Z,13.40
2018-06-15T21:52:25.168Z,13.40
2018-06-15T21:55:00.782Z,13.40
2018-06-15T21:57:36.187Z,13.50
2018-06-15T22:00:11.877Z,13.50
2018-06-15T22:02:47.301Z,13.60
2018-06-15T22:05:22.880Z,13.60
2018-06-15T22:07:58.293Z,13.70
2018-06-15T22:10:33.984Z,13.70
2018-06-15T22:13:09.491Z,13.60
2018-06-15T22:15:45.041Z,13.60
2018-06-15T22:18:20.671Z,13.50
2018-06-15T22:20:56.242Z,13.50
2018-06-15T22:23:31.797Z,13.60
2018-06-15T22:26:07.283Z,13.60
2018-06-15T22:28:42.732Z,13.60
2018-06-15T22:31:18.255Z,13.70
2018-06-15T22:33:53.815Z,13.80
2018-06-15T22:36:29.335Z,13.80
2018-06-15T22:39:08.359Z,13.80
2018-06-15T22:41:44.147Z,13.80
2018-06-15T22:44:19.866Z,14.00
2018-06-15T22:46:55.628Z,14.00
2018-06-15T22:49:31.271Z,14.10
2018-06-15T22:52:07.022Z,14.10
2018-06-15T22:54:42.726Z,14.10
2018-06-15T22:57:18.353Z,14.20
2018-06-15T22:59:53.916Z,14.20
2018-06-15T23:02:29.478Z,14.10
2018-06-15T23:05:05.089Z,14.10
2018-06-15T23:07:40.800Z,14.10
2018-06-15T23:10:16.322Z,14.10
2018-06-15T23:12:54.879Z,14.10
2018-06-15T23:15:30.392Z,14.10
2018-06-15T23:18:05.971Z,14.20
2018-06-15T23:20:41.586Z,14.20
2018-06-15T23:23:17.250Z,14.20
2018-06-15T23:25:52.747Z,14.30
2018-06-15T23:28:28.717Z,14.40
2018-06-15T23:31:04.223Z,14.40
2018-06-15T23:33:39.767Z,14.50
2018-06-15T23:36:15.219Z,14.60
2018-06-15T23:38:50.906Z,14.70
2018-06-15T23:41:26.442Z,14.80
2018-06-15T23:44:02.074Z,14.80
2018-06-15T23:46:37.732Z,14.90
2018-06-15T23:49:13.263Z,14.90
2018-06-15T23:51:48.819Z,14.90
2018-06-15T23:54:24.458Z,14.90
2018-06-15T23:57:00.025Z,14.90
2018-06-15T23:59:35.840Z,14.90
